createdAt,value
2018-08-11T00:01:42.256Z,13.67
2018-08-11T00:04:12.565Z,13.33
2018-08-11T00:06:42.993Z,12.87
2018-08-11T00:09:13.370Z,14.00
2018-08-11T00:11:43.778Z,14.87
2018-08-11T00:14:14.106Z,14.30
2018-08-11T00:16:44.503Z,14.07
2018-08-11T00:19:14.861Z,14.63
2018-08-11T00:21:45.248Z,15.00
2018-08-11T00:24:15.662Z,13.43
2018-08-11T00:26:46.077Z,14.20
2018-08-11T00:29:16.429Z,14.03
2018-08-11T00:31:46.749Z,14.20
2018-08-11T00:34:17.089Z,14.80
2018-08-11T00:36:47.367Z,14.70
2018-08-11T00:39:17.694Z,14.77
2018-08-11T00:41:48.060Z,14.63
2018-08-11T00:44:18.401Z,15.40
2018-08-11T00:46:48.741Z,15.63
2018-08-11T00:49:19.096Z,15.40
2018-08-11T00:51:49.451Z,14.97
2018-08-11T00:54:19.784Z,15.17
2018-08-11T00:56:50.245Z,14.93
2018-08-11T00:59:20.617Z,15.13
2018-08-11T01:01:50.942Z,15.70
2018-08-11T01:04:21.337Z,15.43
2018-08-11T01:06:51.661Z,15.80
2018-08-11T01:09:22.008Z,15.50
2018-08-11T01:11:53.264Z,15.60
2018-08-11T01:14:23.629Z,17.67
2018-08-11T01:16:54.074Z,16.77
2018-08-11T01:19:24.496Z,15.53
2018-08-11T01:21:54.948Z,17.17
2018-08-11T01:24:25.359Z,15.07
2018-08-11T01:26:55.769Z,15.70
2018-08-11T01:29:26.684Z,16.17
2018-08-11T01:31:57.096Z,14.90
2018-08-11T01:34:27.423Z,15.17
2018-08-11T01:36:57.776Z,16.40
2018-08-11T01:39:29.054Z,13.80
2018-08-11T01:41:59.443Z,14.30
2018-08-11T01:44:31.055Z,13.97
2018-08-11T01:47:01.547Z,14.80
2018-08-11T01:49:31.911Z,14.63
2018-08-11T01:52:02.378Z,15.83
2018-08-11T01:54:33.184Z,14.47
2018-08-11T01:57:03.791Z,14.50
2018-08-11T01:59:34.145Z,13.87
2018-08-11T02:02:04.750Z,17.27
2018-08-11T02:04:35.112Z,17.77
2018-08-11T02:07:05.619Z,15.53
2018-08-11T02:09:36.616Z,15.87
2018-08-11T02:12:07.990Z,16.90
2018-08-11T02:14:38.646Z,17.63
2018-08-11T02:17:09.055Z,16.50
2018-08-11T02:19:39.449Z,14.30
2018-08-11T02:22:09.924Z,16.53
2018-08-11T02:24:40.327Z,17.20
2018-08-11T02:27:10.719Z,16.87
2018-08-11T02:29:41.038Z,17.73
2018-08-11T02:32:11.501Z,17.80
2018-08-11T02:34:41.962Z,19.07
2018-08-11T02:37:12.394Z,20.17
2018-08-11T02:39:42.784Z,21.87
2018-08-11T02:42:13.508Z,20.77
2018-08-11T02:44:43.926Z,19.27
2018-08-11T02:47:14.283Z,20.60
2018-08-11T02:49:44.649Z,19.27
2018-08-11T02:52:15.033Z,18.97
2018-08-11T02:54:45.378Z,18.73
2018-08-11T02:57:15.720Z,19.30
2018-08-11T02:59:46.115Z,18.10
2018-08-11T03:02:16.526Z,18.20
2018-08-11T03:04:46.812Z,19.60
2018-08-11T03:07:17.151Z,19.77
2018-08-11T03:09:47.529Z,18.90
2018-08-11T03:12:17.975Z,18.13
2018-08-11T03:14:48.284Z,19.37
2018-08-11T03:17:18.612Z,18.70
2018-08-11T03:19:48.954Z,19.53
2018-08-11T03:22:19.346Z,19.03
2018-08-11T03:24:49.827Z,17.30
2018-08-11T03:27:20.284Z,19.63
2018-08-11T03:29:51.402Z,17.40
2018-08-11T03:32:21.704Z,17.83
2018-08-11T03:34:52.212Z,17.47
2018-08-11T03:37:22.581Z,18.17
2018-08-11T03:39:53.359Z,20.37
2018-08-11T03:42:24.140Z,18.60
2018-08-11T03:44:54.464Z,18.40
2018-08-11T03:47:25.264Z,18.67
2018-08-11T03:49:55.642Z,18.00
2018-08-11T03:52:26.019Z,18.83
2018-08-11T03:54:56.324Z,19.40
2018-08-11T03:57:26.677Z,18.10
2018-08-11T03:59:57.000Z,16.90
2018-08-11T04:02:27.410Z,17.97
2018-08-11T04:04:57.689Z,17.87
2018-08-11T04:07:28.125Z,18.40
2018-08-11T04:09:59.379Z,16.77
2018-08-11T04:12:30.078Z,16.87
2018-08-11T04:15:00.408Z,16.57
2018-08-11T04:17:36.539Z,18.37
2018-08-11T04:20:07.816Z,17.20
2018-08-11T04:22:38.415Z,18.93
2018-08-11T04:25:09.241Z,19.43
2018-08-11T04:27:39.838Z,18.93
2018-08-11T04:30:11.628Z,20.33
2018-08-11T04:32:41.976Z,19.20
2018-08-11T04:35:12.301Z,20.03
2018-08-11T04:37:42.773Z,21.97
2018-08-11T04:40:13.080Z,20.80
2018-08-11T04:42:43.636Z,20.17
2018-08-11T04:45:13.977Z,20.77
2018-08-11T04:47:44.551Z,20.63
2018-08-11T04:50:15.426Z,20.70
2018-08-11T04:52:45.793Z,20.63
2018-08-11T04:55:16.146Z,18.00
2018-08-11T04:57:46.467Z,17.70
2018-08-11T05:00:16.907Z,17.67
2018-08-11T05:02:47.338Z,18.40
2018-08-11T05:05:17.669Z,17.80
2018-08-11T05:07:47.981Z,19.60
2018-08-11T05:10:18.287Z,32.40
2018-08-11T05:12:48.635Z,22.33
2018-08-11T05:15:19.116Z,23.57
2018-08-11T05:17:49.608Z,29.43
2018-08-11T05:20:20.000Z,22.50
2018-08-11T05:22:50.317Z,20.73
2018-08-11T05:25:20.707Z,34.37
2018-08-11T05:27:51.091Z,49.10
2018-08-11T05:30:21.517Z,21.60
2018-08-11T05:32:51.857Z,18.97
2018-08-11T05:35:22.188Z,17.73
2018-08-11T05:37:52.580Z,17.70
2018-08-11T05:40:22.942Z,18.27
2018-08-11T05:42:53.606Z,18.23
2018-08-11T05:45:23.957Z,17.33
2018-08-11T05:47:54.296Z,16.17
2018-08-11T05:50:24.705Z,18.00
2018-08-11T05:52:54.986Z,17.53
2018-08-11T05:55:25.324Z,17.80
2018-08-11T05:57:55.660Z,15.87
2018-08-11T06:00:26.036Z,16.33
2018-08-11T06:02:56.356Z,16.50
2018-08-11T06:05:26.732Z,17.17
2018-08-11T06:07:57.060Z,17.40
2018-08-11T06:10:27.457Z,17.90
2018-08-11T06:12:57.747Z,18.20
2018-08-11T06:15:28.067Z,15.87
2018-08-11T06:17:58.362Z,17.40
2018-08-11T06:20:28.681Z,16.80
2018-08-11T06:22:58.974Z,18.00
2018-08-11T06:25:29.317Z,15.10
2018-08-11T06:27:59.639Z,16.53
2018-08-11T06:30:29.972Z,15.77
2018-08-11T06:33:00.312Z,16.83
2018-08-11T06:35:30.665Z,15.50
2018-08-11T06:38:01.046Z,14.80
2018-08-11T06:40:31.442Z,15.60
2018-08-11T06:43:01.852Z,15.57
2018-08-11T06:45:32.198Z,15.67
2018-08-11T06:48:02.560Z,14.53
2018-08-11T06:50:32.920Z,15.23
2018-08-11T06:53:03.268Z,15.13
2018-08-11T06:55:33.615Z,13.13
2018-08-11T06:58:03.873Z,14.10
2018-08-11T07:00:34.143Z,13.80
2018-08-11T07:03:04.544Z,13.70
2018-08-11T07:05:34.942Z,14.30
2018-08-11T07:08:05.353Z,14.60
2018-08-11T07:10:35.729Z,15.00
2018-08-11T07:13:06.124Z,14.00
2018-08-11T07:15:36.557Z,13.13
2018-08-11T07:18:07.021Z,14.17
2018-08-11T07:20:37.365Z,15.03
2018-08-11T07:23:07.792Z,14.40
2018-08-11T07:25:38.262Z,14.60
2018-08-11T07:28:08.955Z,13.80
2018-08-11T07:30:39.415Z,14.80
2018-08-11T07:33:09.836Z,14.77
2018-08-11T07:35:40.747Z,15.07
2018-08-11T07:40:47.648Z,13.70
2018-08-11T07:43:18.009Z,13.67
2018-08-11T07:45:48.367Z,15.27
2018-08-11T07:48:18.679Z,14.00
2018-08-11T07:50:49.024Z,13.10
2018-08-11T07:53:19.439Z,14.33
2018-08-11T07:55:49.819Z,14.47
2018-08-11T07:58:20.600Z,14.77
2018-08-11T08:00:52.027Z,14.30
2018-08-11T08:03:22.407Z,14.27
2018-08-11T08:05:52.794Z,13.90
2018-08-11T08:08:23.245Z,13.90
2018-08-11T08:10:53.682Z,13.90
2018-08-11T08:13:24.091Z,12.77
2018-08-11T08:15:54.364Z,13.50
2018-08-11T08:18:24.819Z,14.17
2018-08-11T08:20:55.101Z,12.87
2018-08-11T08:23:25.646Z,14.23
2018-08-11T08:25:56.036Z,15.10
2018-08-11T08:28:26.326Z,19.33
2018-08-11T08:30:56.592Z,18.00
2018-08-11T08:33:26.965Z,14.83
2018-08-11T08:35:57.320Z,15.50
2018-08-11T08:38:27.752Z,14.63
2018-08-11T08:40:58.102Z,14.63
2018-08-11T08:43:28.416Z,13.23
2018-08-11T08:45:58.771Z,14.00
2018-08-11T08:48:29.143Z,13.87
2018-08-11T08:50:59.653Z,13.47
2018-08-11T08:53:30.206Z,13.33
2018-08-11T08:56:01.885Z,11.93
2018-08-11T08:58:32.299Z,12.20
2018-08-11T09:01:02.709Z,14.13
2018-08-11T09:03:33.483Z,11.73
2018-08-11T09:06:04.133Z,12.63
2018-08-11T09:08:34.693Z,14.30
2018-08-11T09:11:05.070Z,12.27
2018-08-11T09:13:35.534Z,10.73
2018-08-11T09:16:05.949Z,10.90
2018-08-11T09:18:36.337Z,11.57
2018-08-11T09:21:06.766Z,12.57
2018-08-11T09:23:37.289Z,12.47
2018-08-11T09:26:08.026Z,15.97
2018-08-11T09:28:38.418Z,16.80
2018-08-11T09:31:08.784Z,11.27
2018-08-11T09:33:39.158Z,11.30
2018-08-11T09:36:09.491Z,10.43
2018-08-11T09:38:39.778Z,11.37
2018-08-11T09:41:10.538Z,10.57
2018-08-11T09:43:40.914Z,11.30
2018-08-11T09:46:11.245Z,10.97
2018-08-11T09:48:41.670Z,10.00
2018-08-11T09:51:12.119Z,10.13
2018-08-11T09:53:42.560Z,9.40
2018-08-11T09:56:12.844Z,11.67
2018-08-11T09:58:43.163Z,11.00
2018-08-11T10:01:18.734Z,10.60
2018-08-11T10:03:49.212Z,9.60
2018-08-11T10:06:19.843Z,9.63
2018-08-11T10:08:50.208Z,9.93
2018-08-11T10:11:20.583Z,10.50
2018-08-11T10:13:51.039Z,9.80
2018-08-11T10:16:21.566Z,10.13
2018-08-11T10:18:51.924Z,10.40
2018-08-11T10:21:22.296Z,9.97
2018-08-11T10:23:52.693Z,11.03
2018-08-11T10:26:23.022Z,10.30
2018-08-11T10:28:53.327Z,10.87
2018-08-11T10:31:24.036Z,11.23
2018-08-11T10:33:54.434Z,11.87
2018-08-11T10:36:24.846Z,12.40
2018-08-11T10:38:55.321Z,12.37
2018-08-11T10:41:25.713Z,11.50
2018-08-11T10:43:56.084Z,12.93
2018-08-11T10:46:26.401Z,13.97
2018-08-11T10:48:57.175Z,12.70
2018-08-11T10:51:27.503Z,14.50
2018-08-11T10:53:57.793Z,14.50
2018-08-11T10:56:28.132Z,14.37
2018-08-11T10:58:58.534Z,14.00
2018-08-11T11:01:28.919Z,14.53
2018-08-11T11:03:59.291Z,13.03
2018-08-11T11:06:29.749Z,12.80
2018-08-11T11:09:00.128Z,12.20
2018-08-11T11:11:30.523Z,14.70
2018-08-11T11:14:00.977Z,12.73
2018-08-11T11:16:31.340Z,14.47
2018-08-11T11:19:01.687Z,12.90
2018-08-11T11:21:31.983Z,14.17
2018-08-11T11:24:02.363Z,13.80
2018-08-11T11:26:32.717Z,12.97
2018-08-11T11:29:03.092Z,13.20
2018-08-11T11:31:33.411Z,13.00
2018-08-11T11:34:03.799Z,13.67
2018-08-11T11:36:34.163Z,13.70
2018-08-11T11:39:06.518Z,15.00
2018-08-11T11:41:37.352Z,14.70
2018-08-11T11:44:08.339Z,15.17
2018-08-11T11:46:38.602Z,15.07
2018-08-11T11:49:08.900Z,13.47
2018-08-11T11:51:39.182Z,15.30
2018-08-11T11:54:09.591Z,14.97
2018-08-11T11:56:39.968Z,16.10
2018-08-11T11:59:10.353Z,16.13
2018-08-11T12:01:40.679Z,17.90
2018-08-11T12:04:11.091Z,19.73
2018-08-11T12:06:41.751Z,12.47
2018-08-11T12:09:12.585Z,15.77
2018-08-11T12:11:42.887Z,15.87
2018-08-11T12:14:13.279Z,17.63
2018-08-11T12:16:43.600Z,14.30
2018-08-11T12:19:13.971Z,13.77
2018-08-11T12:21:44.288Z,14.10
2018-08-11T12:24:14.632Z,13.30
2018-08-11T12:26:44.950Z,13.23
2018-08-11T12:29:15.335Z,13.93
2018-08-11T12:31:45.656Z,13.80
2018-08-11T12:34:15.978Z,14.30
2018-08-11T12:36:46.340Z,15.10
2018-08-11T12:39:16.709Z,15.60
2018-08-11T12:41:47.070Z,14.00
2018-08-11T12:44:17.463Z,12.57
2018-08-11T12:46:47.782Z,13.47
2018-08-11T12:49:18.171Z,12.77
2018-08-11T12:51:48.515Z,12.10
2018-08-11T12:54:18.788Z,10.97
2018-08-11T12:56:49.163Z,12.17
2018-08-11T12:59:19.496Z,13.50
2018-08-11T13:01:49.852Z,12.47
2018-08-11T13:04:20.483Z,12.57
2018-08-11T13:06:51.116Z,12.60
2018-08-11T13:09:21.403Z,10.73
2018-08-11T13:11:51.850Z,11.87
2018-08-11T13:14:22.207Z,11.10
2018-08-11T13:16:52.530Z,10.97
2018-08-11T13:19:22.922Z,11.33
2018-08-11T13:21:53.240Z,11.20
2018-08-11T13:24:23.663Z,11.03
2018-08-11T13:26:53.926Z,10.13
2018-08-11T13:29:24.299Z,12.00
2018-08-11T13:31:54.567Z,11.80
2018-08-11T13:34:24.891Z,11.70
2018-08-11T13:36:55.208Z,11.70
2018-08-11T13:39:25.559Z,11.80
2018-08-11T13:41:55.933Z,11.80
2018-08-11T13:44:26.388Z,9.63
2018-08-11T13:46:56.707Z,9.87
2018-08-11T13:49:27.027Z,8.70
2018-08-11T13:51:57.328Z,10.63
2018-08-11T13:54:27.827Z,9.57
2018-08-11T13:56:57.979Z,10.77
2018-08-11T13:59:28.372Z,10.23
2018-08-11T14:01:58.716Z,10.40
2018-08-11T14:04:29.132Z,11.00
2018-08-11T14:06:59.683Z,10.27
2018-08-11T14:09:30.127Z,9.47
2018-08-11T14:12:00.436Z,9.07
2018-08-11T14:14:30.868Z,9.70
2018-08-11T14:17:01.216Z,8.60
2018-08-11T14:19:31.790Z,8.33
2018-08-11T14:22:02.164Z,7.63
2018-08-11T14:24:32.607Z,7.87
2018-08-11T14:27:03.031Z,7.87
2018-08-11T14:29:33.422Z,8.10
2018-08-11T14:32:03.809Z,7.50
2018-08-11T14:34:34.224Z,7.47
2018-08-11T14:37:04.629Z,7.37
2018-08-11T14:39:34.937Z,7.57
2018-08-11T14:42:05.330Z,6.90
2018-08-11T14:44:35.803Z,7.20
2018-08-11T14:47:06.177Z,7.33
2018-08-11T14:49:36.491Z,7.63
2018-08-11T14:52:06.919Z,8.10
2018-08-11T14:54:37.308Z,6.43
2018-08-11T14:57:07.802Z,7.07
2018-08-11T14:59:38.218Z,7.53
2018-08-11T15:02:08.636Z,6.80
2018-08-11T15:04:38.983Z,6.50
2018-08-11T15:07:09.464Z,6.73
2018-08-11T15:09:39.921Z,6.73
2018-08-11T15:12:10.189Z,7.10
2018-08-11T15:14:40.510Z,6.47
2018-08-11T15:17:10.876Z,5.63
2018-08-11T15:19:41.233Z,7.13
2018-08-11T15:22:11.606Z,6.37
2018-08-11T15:24:41.931Z,5.80
2018-08-11T15:27:12.226Z,6.93
2018-08-11T15:29:42.592Z,5.93
2018-08-11T15:32:13.268Z,5.30
2018-08-11T15:34:43.677Z,5.40
2018-08-11T15:37:13.972Z,5.67
2018-08-11T15:39:44.318Z,5.00
2018-08-11T15:42:14.682Z,5.10
2018-08-11T15:44:45.527Z,5.03
2018-08-11T15:47:15.913Z,4.93
2018-08-11T15:49:46.327Z,4.80
2018-08-11T15:52:16.661Z,4.10
2018-08-11T15:54:47.024Z,4.50
2018-08-11T15:57:17.317Z,4.07
2018-08-11T15:59:47.643Z,4.03
2018-08-11T16:02:17.955Z,4.20
2018-08-11T16:04:48.315Z,4.57
2018-08-11T16:07:18.752Z,4.60
2018-08-11T16:09:49.091Z,4.17
2018-08-11T16:12:19.481Z,4.50
2018-08-11T16:14:49.816Z,4.40
2018-08-11T16:17:20.118Z,5.13
2018-08-11T16:19:50.471Z,4.73
2018-08-11T16:22:20.863Z,4.50
2018-08-11T16:24:51.227Z,4.60
2018-08-11T16:27:21.619Z,4.60
2018-08-11T16:29:51.932Z,4.60
2018-08-11T16:32:22.296Z,4.23
2018-08-11T16:34:52.723Z,4.77
2018-08-11T16:37:23.063Z,4.00
2018-08-11T16:39:53.404Z,5.50
2018-08-11T16:42:23.752Z,4.73
2018-08-11T16:44:54.042Z,4.83
2018-08-11T16:47:24.340Z,4.13
2018-08-11T16:49:54.688Z,4.80
2018-08-11T16:52:25.062Z,4.60
2018-08-11T16:54:55.420Z,5.10
2018-08-11T16:57:25.783Z,4.60
2018-08-11T16:59:56.150Z,4.40
2018-08-11T17:02:26.483Z,3.90
2018-08-11T17:04:56.824Z,4.33
2018-08-11T17:07:27.426Z,5.00
2018-08-11T17:09:57.791Z,4.83
2018-08-11T17:12:28.147Z,6.00
2018-08-11T17:14:58.544Z,4.73
2018-08-11T17:17:28.866Z,5.50
2018-08-11T17:19:59.223Z,4.27
2018-08-11T17:22:29.528Z,4.70
2018-08-11T17:24:59.962Z,4.60
2018-08-11T17:27:30.292Z,4.40
2018-08-11T17:30:00.675Z,5.20
2018-08-11T17:32:31.050Z,4.83
2018-08-11T17:35:01.399Z,4.57
2018-08-11T17:37:31.772Z,4.53
2018-08-11T17:40:02.131Z,4.70
2018-08-11T17:42:32.488Z,5.20
2018-08-11T17:45:02.836Z,5.93
2018-08-11T17:47:33.190Z,5.87
2018-08-11T17:50:03.666Z,6.40
2018-08-11T17:52:34.046Z,6.20
2018-08-11T17:55:04.390Z,8.07
2018-08-11T17:57:34.707Z,6.50
2018-08-11T18:00:05.927Z,6.13
2018-08-11T18:02:36.269Z,5.90
2018-08-11T18:05:07.086Z,5.30
2018-08-11T18:07:37.627Z,6.10
2018-08-11T18:10:08.066Z,6.03
2018-08-11T18:12:38.431Z,5.37
2018-08-11T18:15:08.733Z,6.03
2018-08-11T18:17:39.027Z,6.27
2018-08-11T18:20:09.477Z,6.40
2018-08-11T18:22:39.812Z,6.10
2018-08-11T18:25:10.145Z,5.53
2018-08-11T18:27:40.482Z,6.57
2018-08-11T18:30:11.184Z,8.13
2018-08-11T18:32:41.571Z,6.53
2018-08-11T18:35:11.949Z,7.27
2018-08-11T18:37:42.299Z,6.77
2018-08-11T18:40:12.775Z,8.03
2018-08-11T18:42:43.179Z,6.53
2018-08-11T18:45:13.856Z,5.80
2018-08-11T18:47:44.253Z,6.70
2018-08-11T18:50:14.690Z,6.27
2018-08-11T18:52:45.061Z,6.07
2018-08-11T18:55:15.483Z,6.83
2018-08-11T18:57:45.915Z,7.20
2018-08-11T19:00:18.580Z,6.17
2018-08-11T19:02:48.896Z,7.07
2018-08-11T19:05:19.357Z,7.70
2018-08-11T19:07:49.848Z,6.97
2018-08-11T19:10:20.676Z,6.40
2018-08-11T19:12:51.088Z,7.73
2018-08-11T19:15:21.410Z,8.73
2018-08-11T19:17:51.761Z,7.00
2018-08-11T19:20:22.129Z,7.97
2018-08-11T19:22:52.569Z,8.17
2018-08-11T19:25:22.948Z,7.50
2018-08-11T19:27:53.295Z,7.00
2018-08-11T19:30:23.703Z,7.90
2018-08-11T19:32:54.029Z,9.23
2018-08-11T19:35:24.411Z,8.20
2018-08-11T19:37:54.779Z,8.10
2018-08-11T19:40:25.167Z,8.17
2018-08-11T19:42:55.588Z,7.47
2018-08-11T19:45:25.982Z,8.43
2018-08-11T19:47:56.276Z,7.80
2018-08-11T19:50:26.644Z,7.27
2018-08-11T19:52:56.932Z,8.03
2018-08-11T19:55:27.255Z,7.00
2018-08-11T19:57:57.656Z,8.00
2018-08-11T20:00:28.040Z,8.53
2018-08-11T20:02:58.427Z,7.00
2018-08-11T20:05:28.945Z,7.40
2018-08-11T20:07:59.696Z,7.30
2018-08-11T20:10:30.068Z,7.60
2018-08-11T20:13:00.336Z,7.40
2018-08-11T20:15:30.648Z,7.83
2018-08-11T20:18:01.004Z,7.77
2018-08-11T20:20:31.510Z,7.77
2018-08-11T20:23:01.866Z,7.50
2018-08-11T20:25:32.377Z,7.47
2018-08-11T20:28:02.608Z,7.70
2018-08-11T20:30:32.919Z,6.70
2018-08-11T20:33:03.321Z,8.13
2018-08-11T20:35:33.748Z,7.23
2018-08-11T20:38:04.194Z,7.70
2018-08-11T20:40:34.552Z,8.30
2018-08-11T20:43:04.970Z,7.87
2018-08-11T20:45:35.887Z,8.50
2018-08-11T20:48:06.278Z,9.10
2018-08-11T20:50:36.943Z,10.70
2018-08-11T20:53:07.304Z,9.20
2018-08-11T20:55:37.780Z,8.93
2018-08-11T20:58:08.124Z,9.70
2018-08-11T21:00:38.492Z,9.93
2018-08-11T21:03:12.275Z,9.77
2018-08-11T21:05:42.723Z,9.30
2018-08-11T21:08:13.176Z,7.90
2018-08-11T21:10:43.581Z,10.73
2018-08-11T21:13:14.874Z,10.37
2018-08-11T21:15:45.307Z,10.73
2018-08-11T21:18:15.655Z,9.07
2018-08-11T21:20:46.202Z,9.17
2018-08-11T21:23:16.580Z,8.23
2018-08-11T21:25:46.960Z,8.03
2018-08-11T21:28:17.391Z,7.50
2018-08-11T21:30:47.813Z,8.13
2018-08-11T21:33:18.271Z,8.10
2018-08-11T21:35:48.684Z,7.30
2018-08-11T21:38:19.083Z,7.87
2018-08-11T21:40:49.544Z,8.50
2018-08-11T21:43:19.939Z,11.67
2018-08-11T21:45:50.388Z,7.97
2018-08-11T21:48:20.730Z,8.27
2018-08-11T21:50:51.122Z,9.10
2018-08-11T21:53:21.619Z,8.10
2018-08-11T21:55:52.120Z,8.33
2018-08-11T21:58:22.463Z,7.73
2018-08-11T22:00:56.896Z,8.37
2018-08-11T22:03:27.313Z,8.20
2018-08-11T22:05:57.823Z,8.40
2018-08-11T22:08:28.491Z,11.37
2018-08-11T22:10:58.954Z,8.13
2018-08-11T22:13:29.325Z,8.20
2018-08-11T22:16:00.185Z,7.40
2018-08-11T22:18:30.964Z,7.60
2018-08-11T22:21:02.200Z,9.07
2018-08-11T22:23:32.616Z,7.20
2018-08-11T22:26:03.093Z,8.83
2018-08-11T22:28:34.442Z,8.77
2018-08-11T22:31:04.839Z,11.20
2018-08-11T22:33:35.208Z,8.07
2018-08-11T22:36:06.710Z,7.47
2018-08-11T22:38:37.073Z,7.77
2018-08-11T22:41:07.630Z,9.30
2018-08-11T22:43:38.095Z,7.80
2018-08-11T22:46:08.609Z,7.87
2018-08-11T22:48:38.973Z,6.87
2018-08-11T22:51:09.396Z,7.60
2018-08-11T22:53:39.802Z,7.87
2018-08-11T22:56:10.305Z,7.60
2018-08-11T22:58:40.701Z,7.83
2018-08-11T23:01:11.176Z,7.97
2018-08-11T23:03:41.599Z,7.47
2018-08-11T23:06:11.950Z,7.03
2018-08-11T23:08:42.524Z,7.70
2018-08-11T23:11:12.893Z,6.57
2018-08-11T23:13:43.297Z,7.30
2018-08-11T23:16:13.826Z,7.77
2018-08-11T23:18:44.219Z,7.47
2018-08-11T23:21:14.679Z,7.70
2018-08-11T23:23:45.012Z,6.60
2018-08-11T23:26:15.446Z,6.43
2018-08-11T23:28:46.006Z,6.37
2018-08-11T23:31:16.568Z,7.43
2018-08-11T23:33:46.947Z,7.10
2018-08-11T23:36:17.330Z,9.13
2018-08-11T23:38:47.663Z,6.00
2018-08-11T23:41:17.952Z,6.80
2018-08-11T23:43:48.341Z,6.60
2018-08-11T23:46:18.718Z,7.10
2018-08-11T23:48:49.212Z,6.90
2018-08-11T23:51:19.631Z,6.47
2018-08-11T23:53:49.995Z,6.93
2018-08-11T23:56:21.313Z,7.47
2018-08-11T23:58:51.732Z,6.87
